Time;durP1;ratioP1;P1;durP2;ratioP2;P2;SDS_P1;SDS_P2;PMS_P1;PMS_P2;Temp;Humidity;BMP_temperature;BMP_pressure;BME280_temperature;BME280_humidity;BME280_pressure;Samples;Min_cycle;Max_cycle;Signal;HPM_P1;HPM_P2
2021/07/08 00:00:18;;;;;;;12.70;9.98;;;;;;;24.13;64.00;100273.63;5109172;28;20030;-23
2021/07/08 00:02:44;;;;;;;12.55;10.88;;;;;;;24.02;64.14;100271.13;5109403;28;20140;-23
2021/07/08 00:05:11;;;;;;;13.10;9.68;;;;;;;23.86;64.62;100272.53;5108801;28;20487;-23
2021/07/08 00:07:36;;;;;;;13.45;10.82;;;;;;;23.50;65.68;100256.06;5108689;28;20526;-24
2021/07/08 00:10:05;;;;;;;14.68;10.25;;;;;;;23.44;66.24;100268.97;5108503;28;20039;-23
2021/07/08 00:12:31;;;;;;;13.43;10.52;;;;;;;23.90;64.18;100262.66;5108687;28;20048;-23
2021/07/08 00:14:56;;;;;;;11.73;10.52;;;;;;;24.61;62.31;100254.09;5108503;28;20039;-23
2021/07/08 00:17:22;;;;;;;13.82;10.93;;;;;;;24.94;61.42;100267.50;5090505;28;20035;-23
2021/07/08 00:19:47;;;;;;;14.48;10.55;;;;;;;24.80;61.42;100273.78;5108311;28;20403;-23
2021/07/08 00:22:13;;;;;;;12.65;9.95;;;;;;;24.32;63.22;100274.31;5108572;28;20032;-24
2021/07/08 00:24:38;;;;;;;16.35;10.65;;;;;;;24.19;62.98;100269.69;5108394;28;20032;-23
2021/07/08 00:27:04;;;;;;;14.00;11.10;;;;;;;24.18;63.60;100285.25;5108427;28;20391;-23
2021/07/08 00:29:29;;;;;;;14.98;11.60;;;;;;;23.94;63.50;100285.44;5108492;28;20023;-24
2021/07/08 00:31:55;;;;;;;16.77;12.02;;;;;;;24.30;62.93;100282.00;5089713;28;20471;-23
2021/07/08 00:34:20;;;;;;;14.93;11.38;;;;;;;24.46;62.50;100286.00;5107289;28;20019;-23
2021/07/08 00:36:46;;;;;;;23.10;12.73;;;;;;;24.65;62.00;100287.81;5108779;28;20611;-23
2021/07/08 00:39:11;;;;;;;16.30;11.80;;;;;;;24.29;63.20;100285.81;5108324;28;20031;-23
2021/07/08 00:41:37;;;;;;;16.15;12.88;;;;;;;23.99;64.46;100288.09;5108284;28;20046;-23
2021/07/08 00:44:02;;;;;;;14.23;10.88;;;;;;;23.57;64.99;100276.34;5089999;28;20020;-23
2021/07/08 00:46:28;;;;;;;15.07;12.23;;;;;;;23.82;64.50;100287.88;5108220;28;20038;-23
2021/07/08 00:48:53;;;;;;;16.73;11.75;;;;;;;23.85;64.45;100292.72;5107892;28;20057;-23
2021/07/08 00:51:19;;;;;;;15.93;11.38;;;;;;;23.72;64.62;100296.22;5108142;28;20085;-24
2021/07/08 00:53:44;;;;;;;12.93;10.52;;;;;;;23.36;65.84;100289.50;5107565;28;20028;-23
2021/07/08 00:56:10;;;;;;;16.05;11.43;;;;;;;22.69;68.10;100267.97;5107814;28;20032;-24
2021/07/08 00:58:35;;;;;;;15.10;11.57;;;;;;;22.80;67.13;100291.22;5089763;28;20505;-23
2021/07/08 01:01:02;;;;;;;14.63;11.00;;;;;;;22.72;68.18;100281.00;5072951;28;20031;-23
2021/07/08 01:03:28;;;;;;;15.07;12.57;;;;;;;23.25;65.75;100263.56;5107519;28;20031;-23
2021/07/08 01:05:54;;;;;;;15.13;12.80;;;;;;;23.52;64.70;100275.63;5089737;28;20043;-23
2021/07/08 01:08:19;;;;;;;12.98;11.07;;;;;;;23.34;64.46;100278.13;5107744;28;20051;-24
2021/07/08 01:10:45;;;;;;;16.33;11.45;;;;;;;23.22;64.86;100272.34;5107635;28;20034;-23
2021/07/08 01:13:15;;;;;;;15.70;11.63;;;;;;;23.45;64.18;100297.78;5107246;28;20055;-23
2021/07/08 01:15:40;;;;;;;17.23;12.35;;;;;;;23.66;63.84;100306.41;5107425;28;20028;-23
2021/07/08 01:18:06;;;;;;;12.90;11.43;;;;;;;23.30;64.78;100298.88;5107628;28;20251;-23
2021/07/08 01:20:32;;;;;;;13.60;11.85;;;;;;;23.21;65.04;100306.91;5107662;28;20028;-23
2021/07/08 01:22:58;;;;;;;14.32;12.43;;;;;;;22.86;67.08;100295.47;5107564;28;20055;-23
2021/07/08 01:25:24;;;;;;;14.75;11.98;;;;;;;22.84;67.65;100284.06;5107856;28;20495;-23
2021/07/08 01:27:49;;;;;;;17.25;12.98;;;;;;;23.21;66.58;100298.75;5107481;28;20530;-23
2021/07/08 01:30:16;;;;;;;15.07;12.20;;;;;;;23.46;65.80;100296.69;5107565;28;20514;-23
2021/07/08 01:32:41;;;;;;;16.77;12.95;;;;;;;23.52;66.30;100297.38;5107433;28;20062;-23
2021/07/08 01:35:07;;;;;;;17.73;14.40;;;;;;;23.81;64.27;100299.91;5107257;28;20111;-24
2021/07/08 01:37:33;;;;;;;17.80;14.35;;;;;;;23.83;64.21;100295.75;5107292;28;20024;-23
2021/07/08 01:40:00;;;;;;;18.52;13.75;;;;;;;24.03;64.11;100310.88;5107268;28;20031;-23
2021/07/08 01:42:26;;;;;;;16.67;12.93;;;;;;;24.34;62.74;100299.34;5107481;28;20104;-24
2021/07/08 01:44:51;;;;;;;17.05;13.65;;;;;;;24.58;62.24;100279.22;5107463;28;20026;-23
2021/07/08 01:47:17;;;;;;;18.33;13.43;;;;;;;24.26;63.47;100302.81;5110826;28;20040;-23
2021/07/08 01:49:43;;;;;;;22.77;13.60;;;;;;;24.25;63.54;100304.72;5111527;28;20388;-23
2021/07/08 01:52:09;;;;;;;17.17;13.98;;;;;;;24.39;62.84;100310.13;5111386;28;20035;-23
2021/07/08 01:54:34;;;;;;;18.02;12.70;;;;;;;23.75;64.81;100309.25;5111532;28;20088;-23
2021/07/08 01:57:00;;;;;;;15.02;12.48;;;;;;;23.45;65.75;100304.03;5092831;28;20035;-23
2021/07/08 01:59:25;;;;;;;14.05;12.55;;;;;;;23.14;67.30;100301.03;5111348;28;20411;-24
2021/07/08 02:01:51;;;;;;;17.02;11.88;;;;;;;22.97;67.88;100307.00;5111263;28;20035;-23
2021/07/08 02:04:16;;;;;;;16.92;13.00;;;;;;;23.17;67.85;100311.34;5111212;28;20028;-23
2021/07/08 02:06:42;;;;;;;27.40;17.23;;;;;;;23.34;66.67;100309.97;5111035;28;20039;-23
2021/07/08 02:09:07;;;;;;;31.65;19.17;;;;;;;23.50;66.09;100308.59;5111487;28;20027;-24
2021/07/08 02:11:33;;;;;;;21.00;15.68;;;;;;;23.66;65.45;100311.84;5111293;28;20038;-23
2021/07/08 02:13:58;;;;;;;19.73;14.85;;;;;;;23.78;65.35;100314.94;5110567;28;20113;-23
2021/07/08 02:16:24;;;;;;;20.85;13.27;;;;;;;24.03;64.68;100316.34;5111128;28;20024;-24
2021/07/08 02:18:50;;;;;;;24.05;16.90;;;;;;;24.28;63.36;100295.13;5110954;28;20027;-23
2021/07/08 02:21:15;;;;;;;31.70;17.42;;;;;;;24.38;62.87;100308.53;5110829;28;20379;-23
2021/07/08 02:23:41;;;;;;;19.73;14.20;;;;;;;24.34;63.38;100302.09;5110510;28;20092;-23
2021/07/08 02:26:07;;;;;;;18.10;13.27;;;;;;;24.17;63.94;100297.28;5111117;28;20059;-23
2021/07/08 02:28:33;;;;;;;17.35;12.80;;;;;;;23.90;65.57;100305.44;5110749;28;20032;-24
2021/07/08 02:30:58;;;;;;;20.95;13.48;;;;;;;23.58;65.97;100305.19;5110662;28;20116;-23
2021/07/08 02:33:24;;;;;;;17.98;12.63;;;;;;;24.07;64.62;100308.38;5110548;28;20039;-23
2021/07/08 02:35:50;;;;;;;16.70;13.10;;;;;;;24.44;63.36;100292.88;5092133;28;20024;-23
2021/07/08 02:38:16;;;;;;;14.20;11.95;;;;;;;24.71;62.48;100308.38;5110655;28;20058;-23
2021/07/08 02:40:41;;;;;;;14.98;13.02;;;;;;;24.46;63.10;100313.25;5110749;28;20031;-23
2021/07/08 02:43:07;;;;;;;16.38;12.45;;;;;;;24.30;63.35;100300.28;5110534;28;20039;-23
2021/07/08 02:45:34;;;;;;;17.55;12.63;;;;;;;24.24;64.10;100322.19;5110463;28;20106;-23
2021/07/08 02:48:00;;;;;;;18.20;13.98;;;;;;;24.10;64.33;100312.41;5110351;28;20047;-23
2021/07/08 02:50:26;;;;;;;21.17;14.13;;;;;;;24.19;65.48;100318.75;5110535;28;20042;-23
2021/07/08 02:52:52;;;;;;;18.88;13.57;;;;;;;24.17;66.21;100300.00;5110442;28;20798;-23
2021/07/08 02:55:17;;;;;;;17.42;14.10;;;;;;;24.30;65.01;100287.44;5110497;28;20093;-23
2021/07/08 02:57:45;;;;;;;18.88;13.30;;;;;;;24.34;65.22;100314.91;5109222;28;20069;-23
2021/07/08 03:00:12;;;;;;;17.63;13.57;;;;;;;24.54;64.72;100313.66;5110539;28;20027;-23
2021/07/08 03:02:38;;;;;;;17.77;13.88;;;;;;;24.48;65.71;100321.16;5092323;28;20147;-23
2021/07/08 03:05:04;;;;;;;18.98;13.52;;;;;;;23.78;68.38;100320.38;5109985;28;20024;-23
2021/07/08 03:07:29;;;;;;;17.27;14.65;;;;;;;23.59;69.39;100328.56;5110108;28;20023;-23
2021/07/08 03:09:55;;;;;;;19.45;14.13;;;;;;;23.60;69.32;100324.75;5091584;28;20034;-23
2021/07/08 03:12:20;;;;;;;18.08;14.63;;;;;;;24.08;67.04;100323.59;5109819;28;20051;-23
2021/07/08 03:14:46;;;;;;;18.20;13.88;;;;;;;24.08;66.32;100333.69;5109705;28;20028;-23
2021/07/08 03:17:11;;;;;;;20.45;13.10;;;;;;;23.75;67.32;100326.38;5110083;28;20502;-23
2021/07/08 03:19:37;;;;;;;19.42;12.55;;;;;;;23.91;67.74;100332.38;5109673;28;20047;-23
2021/07/08 03:22:02;;;;;;;17.02;12.73;;;;;;;23.35;69.36;100336.88;5109788;28;20544;-23
2021/07/08 03:24:28;;;;;;;16.58;13.07;;;;;;;23.64;68.51;100330.41;5091693;28;20026;-23
2021/07/08 03:26:53;;;;;;;18.30;13.40;;;;;;;23.31;69.05;100321.44;5109827;28;20081;-23
2021/07/08 03:29:19;;;;;;;16.30;13.15;;;;;;;23.09;69.51;100313.91;5109586;28;20028;-23
2021/07/08 03:31:44;;;;;;;14.73;12.68;;;;;;;23.12;71.16;100330.44;5109708;28;20043;-23
2021/07/08 03:34:10;;;;;;;17.90;13.65;;;;;;;22.74;72.13;100319.56;5109599;28;20020;-23
2021/07/08 03:36:36;;;;;;;14.07;12.02;;;;;;;22.45;73.12;100336.81;5109666;28;20031;-23
2021/07/08 03:39:01;;;;;;;15.95;13.38;;;;;;;22.94;71.72;100331.25;5108608;28;20039;-24
2021/07/08 03:41:27;;;;;;;18.77;14.15;;;;;;;23.32;70.11;100340.19;5108961;28;20062;-23
2021/07/08 03:43:52;;;;;;;14.93;13.32;;;;;;;23.58;68.35;100335.13;5109023;28;20507;-23
2021/07/08 03:46:17;;;;;;;18.30;13.20;;;;;;;23.08;69.72;100343.03;5108876;28;20081;-23
2021/07/08 03:48:43;;;;;;;17.30;13.73;;;;;;;23.55;68.46;100356.69;5109453;28;20046;-23
2021/07/08 03:51:08;;;;;;;15.13;13.52;;;;;;;23.59;69.21;100360.44;5109108;28;20058;-23
2021/07/08 03:53:34;;;;;;;16.80;14.13;;;;;;;23.69;68.14;100354.00;5109157;28;20035;-23
2021/07/08 03:55:59;;;;;;;18.27;13.00;;;;;;;23.58;68.78;100347.91;5109031;28;20023;-23
2021/07/08 03:58:25;;;;;;;17.88;15.27;;;;;;;23.99;67.87;100353.47;5090695;28;20028;-23
2021/07/08 04:00:51;;;;;;;16.20;14.57;;;;;;;24.01;67.18;100353.97;5108869;28;20031;-23
2021/07/08 04:03:17;;;;;;;18.90;15.43;;;;;;;23.72;68.50;100337.06;5108864;28;20039;-23
2021/07/08 04:05:44;;;;;;;17.50;14.20;;;;;;;24.17;66.46;100356.38;5108818;28;20035;-23
2021/07/08 04:08:10;;;;;;;17.07;14.67;;;;;;;24.02;67.66;100357.50;5108957;28;20160;-23
2021/07/08 04:10:37;;;;;;;16.70;14.40;;;;;;;24.27;66.64;100364.34;5109083;28;20337;-23
2021/07/08 04:13:08;;;;;;;17.17;15.43;;;;;;;24.66;65.38;100365.75;5108829;28;20043;-23
2021/07/08 04:15:33;;;;;;;21.88;15.38;;;;;;;24.32;65.44;100360.75;5108611;28;20042;-23
2021/07/08 04:17:59;;;;;;;18.13;14.90;;;;;;;24.56;65.04;100365.97;5108405;28;20418;-23
2021/07/08 04:20:25;;;;;;;19.42;15.15;;;;;;;24.68;65.00;100377.16;5108537;28;20032;-23
2021/07/08 04:22:51;;;;;;;18.85;16.00;;;;;;;24.84;64.86;100372.19;5108770;28;20035;-23
2021/07/08 04:25:16;;;;;;;19.77;15.70;;;;;;;24.71;65.08;100357.47;5108695;28;20041;-23
2021/07/08 04:27:42;;;;;;;19.77;14.70;;;;;;;24.86;64.96;100370.75;5108445;28;20384;-23
2021/07/08 04:30:10;;;;;;;18.17;14.38;;;;;;;24.82;64.44;100356.13;5108446;28;20131;-23
2021/07/08 04:32:36;;;;;;;19.08;14.93;;;;;;;25.00;64.10;100348.09;5108526;28;20607;-23
2021/07/08 04:35:02;;;;;;;19.60;13.65;;;;;;;25.00;63.86;100357.06;5108435;28;20028;-23
2021/07/08 04:37:28;;;;;;;15.75;14.00;;;;;;;25.15;63.77;100361.38;5108613;28;20521;-23
2021/07/08 04:39:54;;;;;;;18.48;14.02;;;;;;;25.23;62.68;100368.88;5108742;28;20023;-23
2021/07/08 04:42:19;;;;;;;19.27;14.38;;;;;;;25.41;62.34;100368.97;5112698;28;20042;-23
2021/07/08 04:44:45;;;;;;;18.35;14.85;;;;;;;25.41;62.64;100375.22;5113287;28;20020;-23
2021/07/08 04:47:11;;;;;;;18.00;15.25;;;;;;;25.46;61.83;100377.06;5113065;28;20080;-23
2021/07/08 04:49:37;;;;;;;19.73;15.15;;;;;;;25.62;62.11;100389.19;5113442;28;20023;-23
2021/07/08 04:52:03;;;;;;;19.90;15.25;;;;;;;25.11;63.32;100382.22;5078114;28;20453;-23
2021/07/08 04:54:29;;;;;;;20.13;15.93;;;;;;;24.91;64.39;100388.13;5112992;28;20099;-23
2021/07/08 04:56:54;;;;;;;19.20;15.15;;;;;;;24.66;65.86;100403.94;5113134;28;20054;-23
2021/07/08 04:59:20;;;;;;;16.73;14.85;;;;;;;24.93;64.72;100402.25;5113145;28;20031;-23
2021/07/08 05:01:45;;;;;;;17.95;15.30;;;;;;;24.89;64.83;100395.81;5112974;28;20407;-23
2021/07/08 05:04:11;;;;;;;18.65;15.77;;;;;;;24.95;65.38;100397.34;5094866;28;20080;-23
2021/07/08 05:06:36;;;;;;;18.60;15.38;;;;;;;25.13;63.93;100399.09;5112905;28;20490;-23
2021/07/08 05:09:02;;;;;;;17.50;15.25;;;;;;;25.47;63.09;100400.50;5113005;28;20034;-23
2021/07/08 05:11:27;;;;;;;20.23;15.57;;;;;;;25.60;62.71;100402.34;5112856;28;20155;-23
2021/07/08 05:13:53;;;;;;;19.55;14.43;;;;;;;25.77;61.83;100401.66;5112486;28;20059;-23
2021/07/08 05:16:18;;;;;;;19.77;14.90;;;;;;;25.54;62.22;100395.41;5112855;28;20081;-23
2021/07/08 05:18:43;;;;;;;19.35;15.77;;;;;;;25.30;63.36;100416.75;5112790;28;20035;-24
2021/07/08 05:21:09;;;;;;;17.63;15.10;;;;;;;25.06;63.71;100402.22;5112375;28;20028;-23
2021/07/08 05:23:37;;;;;;;18.55;15.43;;;;;;;25.06;62.98;100417.81;5112675;28;20031;-23
2021/07/08 05:26:02;;;;;;;;;;;;;;;25.26;61.99;100417.38;5113150;28;20126;-23
2021/07/08 05:28:28;;;;;;;23.33;17.27;;;;;;;25.10;62.60;100421.53;5112405;28;19994;-23
2021/07/08 05:30:53;;;;;;;24.23;17.60;;;;;;;25.28;61.85;100408.06;5112691;28;20043;-23
2021/07/08 05:33:18;;;;;;;26.45;18.08;;;;;;;25.49;61.74;100416.56;5112454;28;20031;-23
2021/07/08 05:35:44;;;;;;;20.52;17.67;;;;;;;25.73;61.26;100417.06;5112544;28;20038;-23
2021/07/08 05:38:09;;;;;;;23.67;18.98;;;;;;;25.65;60.74;100417.81;5112967;28;20023;-23
2021/07/08 05:40:35;;;;;;;20.38;17.83;;;;;;;25.39;61.47;100409.44;5112471;28;20035;-23
2021/07/08 05:43:01;;;;;;;21.95;17.25;;;;;;;25.07;62.56;100403.06;5112647;28;20035;-24
2021/07/08 05:45:26;;;;;;;18.98;16.10;;;;;;;24.93;62.92;100415.91;5094187;28;20074;-23
2021/07/08 05:47:52;;;;;;;18.20;16.30;;;;;;;25.22;62.87;100415.56;5112341;28;20493;-23
2021/07/08 05:50:17;;;;;;;19.75;16.95;;;;;;;25.29;62.73;100426.84;5112521;28;20036;-23
2021/07/08 05:52:43;;;;;;;22.00;18.20;;;;;;;25.12;62.89;100432.94;5112409;28;20085;-23
2021/07/08 05:55:09;;;;;;;17.98;15.88;;;;;;;25.14;62.59;100436.19;5112341;28;20028;-23
2021/07/08 05:57:34;;;;;;;19.75;16.40;;;;;;;24.99;62.87;100423.69;5094486;28;20535;-23
2021/07/08 06:00:00;;;;;;;19.98;15.52;;;;;;;25.40;61.97;100432.91;5112383;28;20527;-23
2021/07/08 06:02:26;;;;;;;20.08;15.88;;;;;;;25.36;61.51;100437.38;5094234;28;20030;-23
2021/07/08 06:04:51;;;;;;;21.15;15.95;;;;;;;25.44;61.98;100442.09;5112282;28;20035;-23
2021/07/08 06:07:17;;;;;;;18.17;14.95;;;;;;;25.77;61.04;100433.63;5112134;28;20034;-23
2021/07/08 06:09:42;;;;;;;17.08;14.57;;;;;;;25.46;62.12;100442.59;5112285;28;20043;-23
2021/07/08 06:12:08;;;;;;;15.77;12.15;;;;;;;25.75;59.42;100439.41;5112195;28;20051;-23
2021/07/08 06:14:33;;;;;;;17.65;13.68;;;;;;;25.80;59.32;100438.47;5111955;28;20047;-23
2021/07/08 06:16:59;;;;;;;15.38;12.30;;;;;;;25.87;60.09;100452.50;5112260;28;20402;-24
2021/07/08 06:19:24;;;;;;;14.20;12.23;;;;;;;25.85;58.83;100439.13;5112139;28;20487;-23
2021/07/08 06:21:50;;;;;;;15.57;12.40;;;;;;;25.88;59.22;100432.25;5093871;28;20028;-23
2021/07/08 06:24:16;;;;;;;15.73;12.32;;;;;;;26.10;58.60;100449.75;5094025;28;20022;-23
2021/07/08 06:26:42;;;;;;;13.40;11.52;;;;;;;26.37;57.78;100455.00;5092762;28;20027;-23
2021/07/08 06:29:07;;;;;;;16.88;12.13;;;;;;;26.29;57.03;100458.50;5112357;28;20038;-23
2021/07/08 06:31:33;;;;;;;13.45;11.32;;;;;;;25.88;56.83;100431.44;5111947;28;20452;-23
2021/07/08 06:33:58;;;;;;;15.30;11.95;;;;;;;26.12;58.09;100442.06;5114540;28;20035;-23
2021/07/08 06:36:24;;;;;;;15.52;11.68;;;;;;;26.58;57.73;100443.53;5115804;28;20089;-23
2021/07/08 06:38:49;;;;;;;14.65;12.00;;;;;;;26.98;57.08;100457.16;5115516;28;20391;-23
2021/07/08 06:41:14;;;;;;;13.15;11.45;;;;;;;26.78;56.74;100458.56;5115755;28;20035;-23
2021/07/08 06:43:40;;;;;;;18.65;11.90;;;;;;;26.82;57.12;100451.31;5115663;28;20023;-23
2021/07/08 06:46:07;;;;;;;14.43;11.75;;;;;;;27.05;56.01;100452.81;5115575;28;20467;-23
2021/07/08 06:48:33;;;;;;;17.13;12.02;;;;;;;26.90;56.71;100458.75;5115829;28;20059;-23
2021/07/08 06:50:59;;;;;;;12.80;11.25;;;;;;;26.98;56.85;100454.41;5094839;28;20028;-23
2021/07/08 06:53:24;;;;;;;14.52;11.70;;;;;;;26.90;56.81;100456.00;5092102;28;20112;-23
2021/07/08 06:55:50;;;;;;;11.55;10.35;;;;;;;27.13;55.67;100459.41;5110002;28;20027;-23
2021/07/08 06:58:15;;;;;;;13.05;10.30;;;;;;;27.02;56.46;100452.66;5110278;28;20407;-23
2021/07/08 07:00:42;;;;;;;14.00;10.35;;;;;;;27.39;54.88;100447.69;5110402;28;20047;-23
2021/07/08 07:03:07;;;;;;;12.75;10.48;;;;;;;27.35;55.62;100454.94;5110514;28;20027;-23
2021/07/08 07:05:33;;;;;;;12.07;10.50;;;;;;;27.35;55.62;100441.25;5110810;28;20027;-23
2021/07/08 07:07:59;;;;;;;15.38;10.63;;;;;;;27.39;54.33;100440.28;5109903;28;20035;-23
2021/07/08 07:10:25;;;;;;;17.83;10.82;;;;;;;27.22;54.83;100441.06;5110245;28;20027;-23
2021/07/08 07:12:52;;;;;;;13.00;9.77;;;;;;;27.19;53.66;100444.44;5109493;28;20057;-23
2021/07/08 07:15:19;;;;;;;12.73;10.75;;;;;;;27.44;55.52;100458.47;5091752;28;20415;-23
2021/07/08 07:17:47;;;;;;;13.63;10.47;;;;;;;27.55;54.83;100448.81;5109816;28;20567;-23
2021/07/08 07:20:14;;;;;;;12.82;11.23;;;;;;;27.72;55.33;100452.66;5075016;28;20270;-23
2021/07/08 07:22:39;;;;;;;13.68;11.60;;;;;;;28.14;55.52;100453.72;5091439;28;20020;-23
2021/07/08 07:25:06;;;;;;;15.55;12.25;;;;;;;28.26;54.11;100453.03;5109780;28;20023;-23
2021/07/08 07:27:31;;;;;;;13.98;11.60;;;;;;;28.16;54.24;100450.66;5109522;28;20034;-23
2021/07/08 07:30:00;;;;;;;14.82;11.63;;;;;;;28.36;53.47;100444.44;5109407;28;20567;-23
2021/07/08 07:32:25;;;;;;;12.10;10.52;;;;;;;28.41;53.21;100452.47;5109659;28;20055;-23
2021/07/08 07:34:51;;;;;;;14.73;12.00;;;;;;;28.83;52.27;100455.34;5109219;28;20407;-23
2021/07/08 07:37:16;;;;;;;13.30;11.35;;;;;;;28.97;52.93;100451.53;5109317;28;20031;-23
2021/07/08 07:39:42;;;;;;;13.63;10.50;;;;;;;29.04;52.14;100440.84;5108983;28;20043;-23
2021/07/08 07:42:07;;;;;;;12.30;11.07;;;;;;;29.04;50.44;100446.31;5109221;28;20115;-23
2021/07/08 07:44:33;;;;;;;14.20;11.75;;;;;;;28.90;51.48;100451.28;5109002;28;20657;-23
2021/07/08 07:46:58;;;;;;;12.82;10.88;;;;;;;28.76;51.88;100446.81;5109332;28;20403;-23
2021/07/08 07:49:24;;;;;;;11.63;10.27;;;;;;;28.96;52.96;100439.75;5109193;28;20088;-23
2021/07/08 07:51:49;;;;;;;16.35;11.13;;;;;;;28.99;50.66;100438.28;5108514;28;20414;-23
2021/07/08 07:54:15;;;;;;;12.13;9.65;;;;;;;29.09;50.90;100443.34;5107146;28;20031;-23
2021/07/08 07:56:40;;;;;;;11.10;9.85;;;;;;;29.46;49.00;100440.81;5109295;28;20893;-23
2021/07/08 07:59:06;;;;;;;12.15;9.70;;;;;;;29.50;48.98;100438.22;5109624;28;20031;-23
2021/07/08 08:01:31;;;;;;;11.68;10.00;;;;;;;29.80;48.30;100436.16;5109132;28;20835;-23
2021/07/08 08:03:59;;;;;;;12.85;9.77;;;;;;;29.94;47.41;100439.41;5108628;28;20039;-23
2021/07/08 08:09:08;;;;;;;11.55;9.15;;;;;;;30.03;46.27;100434.59;5108905;28;20039;-23
2021/07/08 08:11:34;;;;;;;10.73;9.02;;;;;;;30.16;45.52;100429.94;5108739;28;20411;-23
2021/07/08 08:13:59;;;;;;;13.30;9.43;;;;;;;29.97;43.34;100416.72;5090085;28;20059;-23
2021/07/08 08:16:25;;;;;;;10.25;8.60;;;;;;;30.10;46.46;100430.47;5073704;28;20027;-23
2021/07/08 08:18:50;;;;;;;11.95;9.40;;;;;;;30.72;45.58;100429.34;5108543;28;20036;-23
2021/07/08 08:21:16;;;;;;;10.80;7.10;;;;;;;30.91;43.71;100427.97;5108843;28;20027;-23
2021/07/08 08:23:41;;;;;;;10.85;7.80;;;;;;;30.67;44.09;100415.84;5108373;28;20032;-23
2021/07/08 08:26:07;;;;;;;10.73;8.85;;;;;;;30.69;44.28;100418.22;5108499;28;20020;-22
2021/07/08 08:28:32;;;;;;;11.13;8.25;;;;;;;30.49;43.79;100425.50;5108627;28;20070;-22
2021/07/08 08:30:58;;;;;;;10.82;8.10;;;;;;;30.04;44.91;100422.47;5108910;28;20798;-22
2021/07/08 08:33:23;;;;;;;9.40;7.88;;;;;;;30.44;44.74;100405.31;5108490;28;20032;-22
2021/07/08 08:35:49;;;;;;;8.90;7.50;;;;;;;30.55;43.85;100410.34;5108317;28;20506;-22
2021/07/08 08:38:15;;;;;;;10.38;7.53;;;;;;;30.67;43.91;100426.03;5108562;28;20479;-23
2021/07/08 08:40:40;;;;;;;9.63;7.45;;;;;;;30.89;42.11;100413.75;5108121;28;20520;-23
2021/07/08 08:43:06;;;;;;;10.15;8.07;;;;;;;31.08;41.44;100407.59;5090005;28;20027;-22
2021/07/08 08:45:31;;;;;;;11.10;7.35;;;;;;;30.79;42.16;100421.31;5097785;28;20526;-23
2021/07/08 08:48:10;;;;;;;8.20;7.05;;;;;;;30.97;41.65;100412.81;5087479;28;20032;-22
2021/07/08 08:50:43;;;;;;;9.43;7.78;;;;;;;30.47;43.05;100405.78;5087828;28;20028;-23
2021/07/08 08:53:09;;;;;;;9.60;8.00;;;;;;;30.75;42.48;100412.16;5087695;28;20036;-23
2021/07/08 08:55:36;;;;;;;10.32;7.63;;;;;;;30.60;43.37;100412.84;5087002;28;20131;-23
2021/07/08 08:58:03;;;;;;;11.45;7.40;;;;;;;30.36;43.83;100419.19;5087457;28;20051;-23
2021/07/08 09:00:30;;;;;;;11.20;8.13;;;;;;;30.65;43.55;100412.63;5087388;28;20173;-23
2021/07/08 09:03:03;;;;;;;11.20;9.10;;;;;;;30.51;43.14;100417.69;5087758;28;20039;-23
2021/07/08 09:05:29;;;;;;;10.15;8.07;;;;;;;30.53;43.03;100409.91;5087217;28;20270;-22
2021/07/08 09:08:23;;;;;;;15.48;9.15;;;;;;;30.68;42.59;100411.94;5052665;28;20024;-23
2021/07/08 09:11:28;;;;;;;8.98;7.60;;;;;;;31.21;41.25;100418.25;5069305;28;20384;-22
2021/07/08 09:14:01;;;;;;;14.00;7.80;;;;;;;31.51;39.82;100395.88;5085509;28;20056;-23
2021/07/08 09:16:34;;;;;;;10.60;7.60;;;;;;;31.96;39.74;100411.22;5092583;28;20027;-23
2021/07/08 09:19:19;;;;;;;9.95;7.22;;;;;;;32.06;39.15;100406.34;5097103;28;20050;-22
2021/07/08 09:21:52;;;;;;;9.57;7.63;;;;;;;31.68;40.26;100393.94;5076605;28;20087;-22
2021/07/08 09:24:17;;;;;;;11.32;7.60;;;;;;;32.03;39.65;100408.66;5087456;28;20453;-23
2021/07/08 09:27:12;;;;;;;9.35;7.53;;;;;;;32.40;40.08;100405.59;5087400;28;20028;-22
2021/07/08 09:29:43;;;;;;;8.98;6.97;;;;;;;32.77;38.74;100415.50;5087111;28;20109;-22
2021/07/08 09:32:16;;;;;;;11.13;7.40;;;;;;;32.66;38.64;100414.50;5087263;28;20068;-22
2021/07/08 09:34:42;;;;;;;11.30;7.43;;;;;;;32.49;38.27;100407.34;5087033;28;20031;-23
2021/07/08 09:37:07;;;;;;;8.63;6.97;;;;;;;33.03;37.76;100406.59;5087410;28;20346;-22
2021/07/08 09:39:43;;;;;;;9.48;7.75;;;;;;;33.05;37.26;100409.00;5089500;28;20846;-23
2021/07/08 09:42:11;;;;;;;8.27;7.25;;;;;;;32.66;38.16;100412.53;5087455;28;20129;-23
2021/07/08 09:44:37;;;;;;;7.68;6.88;;;;;;;32.27;38.49;100390.31;5087065;28;20559;-22
2021/07/08 09:47:03;;;;;;;9.68;7.53;;;;;;;32.37;38.17;100405.53;5087131;28;20039;-23
2021/07/08 09:49:28;;;;;;;8.10;7.30;;;;;;;32.09;38.83;100400.13;5091875;28;20442;-22
2021/07/08 09:51:54;;;;;;;13.75;7.45;;;;;;;32.07;38.55;100392.19;5107220;28;20406;-22
2021/07/08 09:57:45;;;;;;;9.52;7.55;;;;;;;32.21;38.91;100408.31;5073539;28;20047;-22
2021/07/08 10:00:21;;;;;;;8.07;7.28;;;;;;;32.16;38.98;100400.28;5099420;28;20116;-22
2021/07/08 10:02:46;;;;;;;8.65;7.60;;;;;;;32.99;37.45;100408.50;5107241;28;20161;-23
2021/07/08 10:05:12;;;;;;;9.52;7.20;;;;;;;33.65;37.52;100405.88;5093312;28;20387;-23
2021/07/08 10:07:38;;;;;;;8.23;7.20;;;;;;;33.25;37.68;100405.09;5089127;28;20423;-22
2021/07/08 10:10:04;;;;;;;15.65;7.78;;;;;;;33.48;36.74;100391.31;5093838;28;20028;-22
2021/07/08 10:12:31;;;;;;;9.60;7.35;;;;;;;33.91;35.83;100403.16;5098545;28;20055;-22
2021/07/08 10:14:57;;;;;;;11.95;6.65;;;;;;;34.04;39.12;100389.94;5072640;28;20063;-22
2021/07/08 10:17:22;;;;;;;9.38;6.38;;;;;;;32.50;38.20;100386.88;5056032;28;20032;-23
2021/07/08 10:19:48;;;;;;;9.57;7.10;;;;;;;32.14;39.12;100381.34;5062349;28;20036;-23
2021/07/08 10:22:13;;;;;;;8.05;6.63;;;;;;;32.42;39.08;100381.19;5099238;28;20861;-22
2021/07/08 10:24:39;;;;;;;11.38;6.80;;;;;;;33.08;37.49;100378.72;5098398;28;20039;-22
2021/07/08 10:27:07;;;;;;;7.60;6.60;;;;;;;32.54;37.33;100383.06;5075181;28;20507;-22
2021/07/08 10:29:32;;;;;;;7.57;6.40;;;;;;;32.38;38.39;100363.75;5092466;28;20475;-23
2021/07/08 10:31:58;;;;;;;8.98;7.50;;;;;;;32.52;38.44;100379.03;5078616;28;20080;-23
2021/07/08 10:34:23;;;;;;;7.72;6.35;;;;;;;31.88;39.47;100365.31;5083898;28;20030;-23
2021/07/08 10:36:53;;;;;;;9.73;7.93;;;;;;;31.76;39.57;100357.13;5095271;28;20078;-23
2021/07/08 10:39:22;;;;;;;10.13;6.95;;;;;;;32.08;39.10;100357.13;5095509;28;20510;-23
2021/07/08 10:41:55;;;;;;;7.68;6.72;;;;;;;31.52;40.43;100364.38;5077305;28;20111;-23
2021/07/08 10:44:43;;;;;;;10.55;7.03;;;;;;;31.44;41.35;100363.38;5098641;28;20500;-23
2021/07/08 10:47:29;;;;;;;10.18;7.32;;;;;;;32.01;40.48;100372.34;5082152;28;20031;-23
2021/07/08 10:49:54;;;;;;;9.88;6.55;;;;;;;32.28;38.55;100352.47;5100173;28;20061;-23
2021/07/08 10:52:39;;;;;;;8.30;6.63;;;;;;;32.56;36.90;100360.63;5081163;28;20019;-23
2021/07/08 10:55:05;;;;;;;8.88;6.18;;;;;;;33.12;37.40;100356.66;5098181;28;20036;-23
2021/07/08 10:57:37;;;;;;;11.60;6.40;;;;;;;33.68;35.20;100355.38;5100138;28;20167;-23
2021/07/08 11:00:08;;;;;;;8.95;6.15;;;;;;;33.49;34.85;100343.16;5100523;28;20032;-23
2021/07/08 11:02:50;;;;;;;9.02;6.18;;;;;;;33.78;35.41;100349.22;5099375;28;20028;-23
2021/07/08 11:05:55;;;;;;;9.18;6.70;;;;;;;34.09;37.88;100355.63;5099891;28;20047;-23
2021/07/08 11:08:45;;;;;;;7.70;6.25;;;;;;;33.42;39.15;100348.56;5098137;28;20028;-23
2021/07/08 11:11:23;;;;;;;8.20;5.57;;;;;;;33.43;38.46;100350.16;5097946;28;20028;-23
2021/07/08 11:13:52;;;;;;;8.57;5.82;;;;;;;34.29;37.20;100340.53;5098835;28;20130;-23
2021/07/08 11:17:07;;;;;;;8.25;5.50;;;;;;;34.53;34.16;100338.47;5098369;28;20028;-23
2021/07/08 11:19:35;;;;;;;6.68;5.25;;;;;;;34.79;35.48;100313.50;5074972;28;20039;-23